Hoddesdon, United Kingdom
Current Conditions -  °F | °C
As of 9:50 AM on Sunday 28 Dec 2014 (Local Time) from EGSS Reporting Station
Scattered Clouds Scattered Clouds  
Wind Chill: 28°   Ceiling: Unl
Heat Index: 36°   Visibility: 6mi
Dew Point: 30°   Wind: 10mph
Humidity: 81%   Direction: 10°N
Pressure: 30.39"   Gusts: NA
Location:  51.76°N, 0.01°W
Report Text: EGSS 280950Z 01009KT 9999 SCT043 02/M01 Q1029
Loading
Personal Weather Stations






























Interactive Weather Map New forecast layout! Learn more

10-Day Weather Forecast

Advertisements
Track Severe Weather on mobile